sensor_id;sensor_type;location;lat;lon;timestamp;P1;durP1;ratioP1;P2;durP2;ratioP2
18929;SDS011;43305;52.186;5.598;2022-09-02T00:01:24;1.15;;;0.50;;
18929;SDS011;43305;52.186;5.598;2022-09-02T00:03:54;1.25;;;0.60;;
18929;SDS011;43305;52.186;5.598;2022-09-02T00:06:23;1.30;;;0.60;;
18929;SDS011;43305;52.186;5.598;2022-09-02T00:08:50;3.33;;;0.68;;
18929;SDS011;43305;52.186;5.598;2022-09-02T00:11:18;1.00;;;0.60;;
18929;SDS011;43305;52.186;5.598;2022-09-02T00:13:47;1.52;;;0.70;;
18929;SDS011;43305;52.186;5.598;2022-09-02T00:16:15;2.13;;;0.57;;
18929;SDS011;43305;52.186;5.598;2022-09-02T00:18:43;4.88;;;0.68;;
18929;SDS011;43305;52.186;5.598;2022-09-02T00:21:12;1.42;;;0.70;;
18929;SDS011;43305;52.186;5.598;2022-09-02T00:23:41;2.08;;;0.95;;
18929;SDS011;43305;52.186;5.598;2022-09-02T00:26:09;1.17;;;0.60;;
18929;SDS011;43305;52.186;5.598;2022-09-02T00:28:37;1.50;;;0.63;;
18929;SDS011;43305;52.186;5.598;2022-09-02T00:31:05;3.80;;;0.60;;
18929;SDS011;43305;52.186;5.598;2022-09-02T00:33:32;3.72;;;0.68;;
18929;SDS011;43305;52.186;5.598;2022-09-02T00:36:02;4.10;;;0.50;;
18929;SDS011;43305;52.186;5.598;2022-09-02T00:38:30;3.78;;;0.73;;
18929;SDS011;43305;52.186;5.598;2022-09-02T00:40:58;2.65;;;0.70;;
18929;SDS011;43305;52.186;5.598;2022-09-02T00:43:38;2.65;;;0.80;;
18929;SDS011;43305;52.186;5.598;2022-09-02T00:46:07;2.10;;;0.60;;
18929;SDS011;43305;52.186;5.598;2022-09-02T00:48:35;1.23;;;0.70;;
18929;SDS011;43305;52.186;5.598;2022-09-02T00:51:06;3.05;;;0.52;;
18929;SDS011;43305;52.186;5.598;2022-09-02T00:53:33;2.95;;;0.60;;
18929;SDS011;43305;52.186;5.598;2022-09-02T00:56:03;1.80;;;0.70;;
18929;SDS011;43305;52.186;5.598;2022-09-02T00:58:33;1.05;;;0.50;;
18929;SDS011;43305;52.186;5.598;2022-09-02T01:01:02;3.08;;;0.73;;
18929;SDS011;43305;52.186;5.598;2022-09-02T01:03:30;2.20;;;0.68;;
18929;SDS011;43305;52.186;5.598;2022-09-02T01:05:58;5.05;;;0.73;;
18929;SDS011;43305;52.186;5.598;2022-09-02T01:08:29;1.15;;;0.50;;
18929;SDS011;43305;52.186;5.598;2022-09-02T01:11:00;1.98;;;0.68;;
18929;SDS011;43305;52.186;5.598;2022-09-02T01:13:31;1.85;;;0.77;;
18929;SDS011;43305;52.186;5.598;2022-09-02T01:16:14;2.50;;;0.70;;
18929;SDS011;43305;52.186;5.598;2022-09-02T01:18:46;3.65;;;0.70;;
18929;SDS011;43305;52.186;5.598;2022-09-02T01:21:16;1.20;;;0.60;;
18929;SDS011;43305;52.186;5.598;2022-09-02T01:23:45;2.08;;;0.57;;
18929;SDS011;43305;52.186;5.598;2022-09-02T01:26:12;1.70;;;0.60;;
18929;SDS011;43305;52.186;5.598;2022-09-02T01:28:39;3.25;;;0.52;;
18929;SDS011;43305;52.186;5.598;2022-09-02T01:31:06;4.40;;;0.70;;
18929;SDS011;43305;52.186;5.598;2022-09-02T01:33:34;1.52;;;0.60;;
18929;SDS011;43305;52.186;5.598;2022-09-02T01:36:02;2.25;;;0.60;;
18929;SDS011;43305;52.186;5.598;2022-09-02T01:38:29;1.90;;;0.50;;
18929;SDS011;43305;52.186;5.598;2022-09-02T01:40:58;3.75;;;0.70;;
18929;SDS011;43305;52.186;5.598;2022-09-02T01:43:26;1.75;;;0.60;;
18929;SDS011;43305;52.186;5.598;2022-09-02T01:45:56;1.20;;;0.57;;
18929;SDS011;43305;52.186;5.598;2022-09-02T01:48:24;1.50;;;0.60;;
18929;SDS011;43305;52.186;5.598;2022-09-02T01:50:52;3.28;;;0.70;;
18929;SDS011;43305;52.186;5.598;2022-09-02T01:53:21;1.45;;;0.70;;
18929;SDS011;43305;52.186;5.598;2022-09-02T01:55:48;2.33;;;0.60;;
18929;SDS011;43305;52.186;5.598;2022-09-02T01:58:17;2.33;;;0.68;;
18929;SDS011;43305;52.186;5.598;2022-09-02T02:00:45;3.47;;;0.60;;
18929;SDS011;43305;52.186;5.598;2022-09-02T02:03:12;2.38;;;0.70;;
18929;SDS011;43305;52.186;5.598;2022-09-02T02:05:40;5.03;;;0.70;;
18929;SDS011;43305;52.186;5.598;2022-09-02T02:08:07;1.67;;;0.50;;
18929;SDS011;43305;52.186;5.598;2022-09-02T02:10:35;1.20;;;0.60;;
18929;SDS011;43305;52.186;5.598;2022-09-02T02:13:02;3.38;;;0.50;;
18929;SDS011;43305;52.186;5.598;2022-09-02T02:15:31;1.48;;;0.57;;
18929;SDS011;43305;52.186;5.598;2022-09-02T02:17:57;2.22;;;0.60;;
18929;SDS011;43305;52.186;5.598;2022-09-02T02:20:24;1.17;;;0.63;;
18929;SDS011;43305;52.186;5.598;2022-09-02T02:22:52;2.40;;;0.70;;
18929;SDS011;43305;52.186;5.598;2022-09-02T02:25:19;2.15;;;0.50;;
18929;SDS011;43305;52.186;5.598;2022-09-02T02:27:46;1.23;;;0.50;;
18929;SDS011;43305;52.186;5.598;2022-09-02T02:30:14;1.45;;;0.60;;
18929;SDS011;43305;52.186;5.598;2022-09-02T02:32:43;3.53;;;0.60;;
18929;SDS011;43305;52.186;5.598;2022-09-02T02:35:11;2.30;;;0.57;;
18929;SDS011;43305;52.186;5.598;2022-09-02T02:37:39;1.27;;;0.68;;
18929;SDS011;43305;52.186;5.598;2022-09-02T02:40:06;2.55;;;0.60;;
18929;SDS011;43305;52.186;5.598;2022-09-02T02:42:34;1.67;;;0.73;;
18929;SDS011;43305;52.186;5.598;2022-09-02T02:45:01;1.10;;;0.60;;
18929;SDS011;43305;52.186;5.598;2022-09-02T02:47:34;2.20;;;0.60;;
18929;SDS011;43305;52.186;5.598;2022-09-02T02:50:04;2.97;;;0.50;;
18929;SDS011;43305;52.186;5.598;2022-09-02T02:52:31;1.75;;;0.50;;
18929;SDS011;43305;52.186;5.598;2022-09-02T02:54:58;1.15;;;0.57;;
18929;SDS011;43305;52.186;5.598;2022-09-02T02:57:25;3.10;;;0.68;;
18929;SDS011;43305;52.186;5.598;2022-09-02T02:59:51;1.38;;;0.82;;
18929;SDS011;43305;52.186;5.598;2022-09-02T03:02:19;1.92;;;0.60;;
18929;SDS011;43305;52.186;5.598;2022-09-02T03:04:46;0.63;;;0.40;;
18929;SDS011;43305;52.186;5.598;2022-09-02T03:07:16;3.60;;;0.60;;
18929;SDS011;43305;52.186;5.598;2022-09-02T03:09:43;2.47;;;0.70;;
18929;SDS011;43305;52.186;5.598;2022-09-02T03:12:10;2.40;;;0.80;;
18929;SDS011;43305;52.186;5.598;2022-09-02T03:14:37;1.98;;;0.60;;
18929;SDS011;43305;52.186;5.598;2022-09-02T03:17:03;2.83;;;0.60;;
18929;SDS011;43305;52.186;5.598;2022-09-02T03:19:30;1.35;;;0.60;;
18929;SDS011;43305;52.186;5.598;2022-09-02T03:21:57;1.90;;;0.50;;
18929;SDS011;43305;52.186;5.598;2022-09-02T03:24:26;1.23;;;0.47;;
18929;SDS011;43305;52.186;5.598;2022-09-02T03:26:53;3.72;;;1.02;;
18929;SDS011;43305;52.186;5.598;2022-09-02T03:29:19;1.92;;;0.68;;
18929;SDS011;43305;52.186;5.598;2022-09-02T03:31:46;1.98;;;0.50;;
18929;SDS011;43305;52.186;5.598;2022-09-02T03:34:13;1.75;;;0.60;;
18929;SDS011;43305;52.186;5.598;2022-09-02T03:36:40;3.05;;;0.63;;
18929;SDS011;43305;52.186;5.598;2022-09-02T03:39:09;3.60;;;0.70;;
18929;SDS011;43305;52.186;5.598;2022-09-02T03:41:38;4.18;;;0.70;;
18929;SDS011;43305;52.186;5.598;2022-09-02T03:44:05;1.15;;;0.60;;
18929;SDS011;43305;52.186;5.598;2022-09-02T03:46:33;1.27;;;0.60;;
18929;SDS011;43305;52.186;5.598;2022-09-02T03:49:00;1.25;;;0.50;;
18929;SDS011;43305;52.186;5.598;2022-09-02T03:51:27;1.65;;;0.50;;
18929;SDS011;43305;52.186;5.598;2022-09-02T03:53:55;3.97;;;0.60;;
18929;SDS011;43305;52.186;5.598;2022-09-02T03:56:22;1.13;;;0.63;;
18929;SDS011;43305;52.186;5.598;2022-09-02T03:58:51;2.95;;;0.77;;
18929;SDS011;43305;52.186;5.598;2022-09-02T04:01:20;1.98;;;0.77;;
18929;SDS011;43305;52.186;5.598;2022-09-02T04:03:49;1.95;;;0.63;;
18929;SDS011;43305;52.186;5.598;2022-09-02T04:06:16;2.03;;;0.70;;
18929;SDS011;43305;52.186;5.598;2022-09-02T04:08:45;2.40;;;0.57;;
18929;SDS011;43305;52.186;5.598;2022-09-02T04:11:14;2.92;;;0.77;;
18929;SDS011;43305;52.186;5.598;2022-09-02T04:13:42;1.33;;;0.50;;
18929;SDS011;43305;52.186;5.598;2022-09-02T04:16:12;2.05;;;0.57;;
18929;SDS011;43305;52.186;5.598;2022-09-02T04:18:40;2.15;;;0.70;;
18929;SDS011;43305;52.186;5.598;2022-09-02T04:21:07;2.97;;;0.80;;
18929;SDS011;43305;52.186;5.598;2022-09-02T04:23:34;1.42;;;0.60;;
18929;SDS011;43305;52.186;5.598;2022-09-02T04:26:02;3.58;;;0.75;;
18929;SDS011;43305;52.186;5.598;2022-09-02T04:28:31;4.90;;;0.80;;
18929;SDS011;43305;52.186;5.598;2022-09-02T04:30:58;6.18;;;0.70;;
18929;SDS011;43305;52.186;5.598;2022-09-02T04:33:27;5.82;;;0.80;;
18929;SDS011;43305;52.186;5.598;2022-09-02T04:35:53;1.73;;;0.55;;
18929;SDS011;43305;52.186;5.598;2022-09-02T04:38:20;3.83;;;0.70;;
18929;SDS011;43305;52.186;5.598;2022-09-02T04:40:47;5.70;;;0.68;;
18929;SDS011;43305;52.186;5.598;2022-09-02T04:43:14;1.48;;;0.50;;
18929;SDS011;43305;52.186;5.598;2022-09-02T04:45:42;1.27;;;0.70;;
18929;SDS011;43305;52.186;5.598;2022-09-02T04:48:10;2.22;;;0.60;;
18929;SDS011;43305;52.186;5.598;2022-09-02T04:50:40;2.35;;;0.60;;
18929;SDS011;43305;52.186;5.598;2022-09-02T04:53:08;1.20;;;0.50;;
18929;SDS011;43305;52.186;5.598;2022-09-02T04:55:37;1.52;;;0.63;;
18929;SDS011;43305;52.186;5.598;2022-09-02T04:58:04;3.03;;;0.73;;
18929;SDS011;43305;52.186;5.598;2022-09-02T05:00:31;1.80;;;0.60;;
18929;SDS011;43305;52.186;5.598;2022-09-02T05:02:58;2.25;;;0.65;;
18929;SDS011;43305;52.186;5.598;2022-09-02T05:05:25;2.45;;;0.80;;
18929;SDS011;43305;52.186;5.598;2022-09-02T05:07:54;3.42;;;0.50;;
18929;SDS011;43305;52.186;5.598;2022-09-02T05:10:20;4.25;;;0.70;;
18929;SDS011;43305;52.186;5.598;2022-09-02T05:12:48;2.97;;;0.80;;
18929;SDS011;43305;52.186;5.598;2022-09-02T05:15:15;2.13;;;0.70;;
18929;SDS011;43305;52.186;5.598;2022-09-02T05:18:02;2.75;;;0.90;;
18929;SDS011;43305;52.186;5.598;2022-09-02T05:20:28;3.20;;;0.70;;
18929;SDS011;43305;52.186;5.598;2022-09-02T05:22:59;2.72;;;0.68;;
18929;SDS011;43305;52.186;5.598;2022-09-02T05:25:27;3.20;;;0.70;;
18929;SDS011;43305;52.186;5.598;2022-09-02T05:27:58;3.85;;;0.70;;
18929;SDS011;43305;52.186;5.598;2022-09-02T05:30:25;5.20;;;0.65;;
18929;SDS011;43305;52.186;5.598;2022-09-02T05:32:51;2.15;;;0.60;;
18929;SDS011;43305;52.186;5.598;2022-09-02T05:35:18;4.35;;;0.70;;
18929;SDS011;43305;52.186;5.598;2022-09-02T05:37:45;4.13;;;0.70;;
18929;SDS011;43305;52.186;5.598;2022-09-02T05:40:13;2.15;;;0.70;;
18929;SDS011;43305;52.186;5.598;2022-09-02T05:42:40;3.83;;;0.90;;
18929;SDS011;43305;52.186;5.598;2022-09-02T05:45:07;8.07;;;0.88;;
18929;SDS011;43305;52.186;5.598;2022-09-02T05:47:36;3.95;;;0.82;;
18929;SDS011;43305;52.186;5.598;2022-09-02T05:50:03;4.38;;;0.73;;
18929;SDS011;43305;52.186;5.598;2022-09-02T05:52:31;1.40;;;0.60;;
18929;SDS011;43305;52.186;5.598;2022-09-02T05:54:59;4.63;;;0.73;;
18929;SDS011;43305;52.186;5.598;2022-09-02T05:57:29;1.63;;;0.68;;
18929;SDS011;43305;52.186;5.598;2022-09-02T05:59:56;1.67;;;0.70;;
18929;SDS011;43305;52.186;5.598;2022-09-02T06:02:23;2.90;;;0.60;;
18929;SDS011;43305;52.186;5.598;2022-09-02T06:04:51;3.15;;;0.70;;
18929;SDS011;43305;52.186;5.598;2022-09-02T06:07:20;3.97;;;0.70;;
18929;SDS011;43305;52.186;5.598;2022-09-02T06:09:49;3.75;;;1.23;;
18929;SDS011;43305;52.186;5.598;2022-09-02T06:12:16;5.45;;;0.75;;
18929;SDS011;43305;52.186;5.598;2022-09-02T06:14:47;2.47;;;0.90;;
18929;SDS011;43305;52.186;5.598;2022-09-02T06:17:14;3.58;;;0.75;;
18929;SDS011;43305;52.186;5.598;2022-09-02T06:19:41;1.17;;;0.70;;
18929;SDS011;43305;52.186;5.598;2022-09-02T06:22:08;2.83;;;0.80;;
18929;SDS011;43305;52.186;5.598;2022-09-02T06:24:36;2.38;;;0.60;;
18929;SDS011;43305;52.186;5.598;2022-09-02T06:29:50;2.72;;;0.73;;
18929;SDS011;43305;52.186;5.598;2022-09-02T06:32:20;2.25;;;0.70;;
18929;SDS011;43305;52.186;5.598;2022-09-02T06:34:47;4.32;;;0.82;;
18929;SDS011;43305;52.186;5.598;2022-09-02T06:37:14;3.38;;;0.68;;
18929;SDS011;43305;52.186;5.598;2022-09-02T06:39:41;3.22;;;0.75;;
18929;SDS011;43305;52.186;5.598;2022-09-02T06:42:10;4.50;;;0.80;;
18929;SDS011;43305;52.186;5.598;2022-09-02T06:44:36;3.78;;;0.80;;
18929;SDS011;43305;52.186;5.598;2022-09-02T06:47:05;3.92;;;0.60;;
18929;SDS011;43305;52.186;5.598;2022-09-02T06:49:31;2.25;;;0.70;;
18929;SDS011;43305;52.186;5.598;2022-09-02T06:51:58;2.95;;;0.50;;
18929;SDS011;43305;52.186;5.598;2022-09-02T06:54:25;3.30;;;0.63;;
18929;SDS011;43305;52.186;5.598;2022-09-02T06:56:52;2.50;;;0.63;;
18929;SDS011;43305;52.186;5.598;2022-09-02T06:59:20;2.47;;;0.77;;
18929;SDS011;43305;52.186;5.598;2022-09-02T07:01:49;5.72;;;0.80;;
18929;SDS011;43305;52.186;5.598;2022-09-02T07:04:18;2.13;;;0.90;;
18929;SDS011;43305;52.186;5.598;2022-09-02T07:06:59;1.77;;;0.80;;
18929;SDS011;43305;52.186;5.598;2022-09-02T07:09:29;3.33;;;0.90;;
18929;SDS011;43305;52.186;5.598;2022-09-02T07:11:57;3.53;;;0.77;;
18929;SDS011;43305;52.186;5.598;2022-09-02T07:14:25;1.73;;;0.88;;
18929;SDS011;43305;52.186;5.598;2022-09-02T07:16:54;4.03;;;0.80;;
18929;SDS011;43305;52.186;5.598;2022-09-02T07:19:25;1.80;;;0.85;;
18929;SDS011;43305;52.186;5.598;2022-09-02T07:21:53;2.40;;;0.90;;
18929;SDS011;43305;52.186;5.598;2022-09-02T07:24:21;1.77;;;0.90;;
18929;SDS011;43305;52.186;5.598;2022-09-02T07:26:48;1.17;;;0.65;;
18929;SDS011;43305;52.186;5.598;2022-09-02T07:29:15;2.85;;;0.73;;
18929;SDS011;43305;52.186;5.598;2022-09-02T07:31:43;1.75;;;0.90;;
18929;SDS011;43305;52.186;5.598;2022-09-02T07:34:12;1.15;;;0.70;;
18929;SDS011;43305;52.186;5.598;2022-09-02T07:36:42;1.85;;;0.80;;
18929;SDS011;43305;52.186;5.598;2022-09-02T07:39:10;4.88;;;0.80;;
18929;SDS011;43305;52.186;5.598;2022-09-02T07:41:40;3.63;;;0.68;;
18929;SDS011;43305;52.186;5.598;2022-09-02T07:44:11;2.90;;;1.00;;
18929;SDS011;43305;52.186;5.598;2022-09-02T07:46:38;3.47;;;0.90;;
18929;SDS011;43305;52.186;5.598;2022-09-02T07:49:07;3.20;;;0.95;;
18929;SDS011;43305;52.186;5.598;2022-09-02T07:51:36;3.20;;;0.90;;
18929;SDS011;43305;52.186;5.598;2022-09-02T07:54:08;2.30;;;1.00;;
18929;SDS011;43305;52.186;5.598;2022-09-02T07:56:41;4.18;;;0.90;;
18929;SDS011;43305;52.186;5.598;2022-09-02T07:59:09;3.17;;;0.90;;
18929;SDS011;43305;52.186;5.598;2022-09-02T08:01:37;3.17;;;1.08;;
18929;SDS011;43305;52.186;5.598;2022-09-02T08:04:07;7.43;;;0.90;;
18929;SDS011;43305;52.186;5.598;2022-09-02T08:06:34;5.00;;;1.00;;
18929;SDS011;43305;52.186;5.598;2022-09-02T08:09:02;2.55;;;0.90;;
18929;SDS011;43305;52.186;5.598;2022-09-02T08:11:32;4.70;;;0.80;;
18929;SDS011;43305;52.186;5.598;2022-09-02T08:14:04;2.13;;;1.00;;
18929;SDS011;43305;52.186;5.598;2022-09-02T08:16:32;9.00;;;0.98;;
18929;SDS011;43305;52.186;5.598;2022-09-02T08:18:59;3.72;;;0.98;;
18929;SDS011;43305;52.186;5.598;2022-09-02T08:21:26;8.95;;;1.30;;
18929;SDS011;43305;52.186;5.598;2022-09-02T08:23:53;6.43;;;1.17;;
18929;SDS011;43305;52.186;5.598;2022-09-02T08:26:21;7.20;;;1.10;;
18929;SDS011;43305;52.186;5.598;2022-09-02T08:28:49;3.22;;;0.93;;
18929;SDS011;43305;52.186;5.598;2022-09-02T08:31:16;5.68;;;1.10;;
18929;SDS011;43305;52.186;5.598;2022-09-02T08:33:43;5.43;;;1.52;;
18929;SDS011;43305;52.186;5.598;2022-09-02T08:36:10;5.63;;;0.93;;
18929;SDS011;43305;52.186;5.598;2022-09-02T08:38:39;3.88;;;1.30;;
18929;SDS011;43305;52.186;5.598;2022-09-02T08:41:16;3.45;;;1.15;;
18929;SDS011;43305;52.186;5.598;2022-09-02T08:43:47;3.08;;;1.08;;
18929;SDS011;43305;52.186;5.598;2022-09-02T08:46:17;3.80;;;1.20;;
18929;SDS011;43305;52.186;5.598;2022-09-02T08:48:50;5.78;;;1.20;;
18929;SDS011;43305;52.186;5.598;2022-09-02T08:51:23;1.80;;;1.00;;
18929;SDS011;43305;52.186;5.598;2022-09-02T08:53:56;3.05;;;1.17;;
18929;SDS011;43305;52.186;5.598;2022-09-02T08:56:29;4.57;;;1.33;;
18929;SDS011;43305;52.186;5.598;2022-09-02T08:58:58;3.65;;;1.13;;
18929;SDS011;43305;52.186;5.598;2022-09-02T09:01:30;6.60;;;1.15;;
18929;SDS011;43305;52.186;5.598;2022-09-02T09:04:11;3.50;;;1.08;;
18929;SDS011;43305;52.186;5.598;2022-09-02T09:06:50;5.63;;;1.30;;
18929;SDS011;43305;52.186;5.598;2022-09-02T09:09:27;2.85;;;0.98;;
18929;SDS011;43305;52.186;5.598;2022-09-02T09:12:02;3.38;;;1.20;;
18929;SDS011;43305;52.186;5.598;2022-09-02T09:14:36;4.97;;;1.20;;
18929;SDS011;43305;52.186;5.598;2022-09-02T09:17:13;8.05;;;1.23;;
18929;SDS011;43305;52.186;5.598;2022-09-02T09:19:50;4.28;;;1.48;;
18929;SDS011;43305;52.186;5.598;2022-09-02T09:22:19;5.97;;;1.30;;
18929;SDS011;43305;52.186;5.598;2022-09-02T09:24:49;4.97;;;1.50;;
18929;SDS011;43305;52.186;5.598;2022-09-02T09:27:17;2.60;;;1.60;;
18929;SDS011;43305;52.186;5.598;2022-09-02T09:29:47;3.92;;;1.30;;
18929;SDS011;43305;52.186;5.598;2022-09-02T09:32:17;3.78;;;1.20;;
18929;SDS011;43305;52.186;5.598;2022-09-02T09:34:56;3.15;;;1.30;;
18929;SDS011;43305;52.186;5.598;2022-09-02T09:37:28;2.65;;;1.50;;
18929;SDS011;43305;52.186;5.598;2022-09-02T09:39:57;6.07;;;1.60;;
18929;SDS011;43305;52.186;5.598;2022-09-02T09:42:32;3.47;;;1.50;;
18929;SDS011;43305;52.186;5.598;2022-09-02T09:45:13;4.30;;;1.13;;
18929;SDS011;43305;52.186;5.598;2022-09-02T09:47:44;3.72;;;1.17;;
18929;SDS011;43305;52.186;5.598;2022-09-02T09:50:15;3.88;;;1.38;;
18929;SDS011;43305;52.186;5.598;2022-09-02T09:52:43;4.00;;;1.30;;
18929;SDS011;43305;52.186;5.598;2022-09-02T09:55:13;4.70;;;1.48;;
18929;SDS011;43305;52.186;5.598;2022-09-02T09:57:43;10.13;;;1.38;;
18929;SDS011;43305;52.186;5.598;2022-09-02T10:00:17;4.93;;;1.42;;
18929;SDS011;43305;52.186;5.598;2022-09-02T10:02:47;6.60;;;1.50;;
18929;SDS011;43305;52.186;5.598;2022-09-02T10:05:17;4.13;;;1.20;;
18929;SDS011;43305;52.186;5.598;2022-09-02T10:07:54;4.32;;;1.20;;
18929;SDS011;43305;52.186;5.598;2022-09-02T10:10:27;5.50;;;1.38;;
18929;SDS011;43305;52.186;5.598;2022-09-02T10:12:57;3.50;;;1.30;;
18929;SDS011;43305;52.186;5.598;2022-09-02T10:15:34;2.63;;;1.23;;
18929;SDS011;43305;52.186;5.598;2022-09-02T10:18:11;4.65;;;1.75;;
18929;SDS011;43305;52.186;5.598;2022-09-02T10:20:49;7.15;;;1.67;;
18929;SDS011;43305;52.186;5.598;2022-09-02T10:23:25;5.95;;;1.60;;
18929;SDS011;43305;52.186;5.598;2022-09-02T10:26:02;4.50;;;1.25;;
18929;SDS011;43305;52.186;5.598;2022-09-02T10:28:43;5.10;;;1.63;;
18929;SDS011;43305;52.186;5.598;2022-09-02T10:31:28;4.75;;;1.70;;
18929;SDS011;43305;52.186;5.598;2022-09-02T10:34:04;5.32;;;1.48;;
18929;SDS011;43305;52.186;5.598;2022-09-02T10:36:58;4.20;;;1.60;;
18929;SDS011;43305;52.186;5.598;2022-09-02T10:39:37;5.95;;;1.63;;
18929;SDS011;43305;52.186;5.598;2022-09-02T10:42:20;2.95;;;1.80;;
18929;SDS011;43305;52.186;5.598;2022-09-02T10:44:55;3.00;;;1.50;;
18929;SDS011;43305;52.186;5.598;2022-09-02T10:47:36;2.63;;;1.48;;
18929;SDS011;43305;52.186;5.598;2022-09-02T10:50:10;2.85;;;1.60;;
18929;SDS011;43305;52.186;5.598;2022-09-02T10:52:51;4.00;;;1.42;;
18929;SDS011;43305;52.186;5.598;2022-09-02T10:55:35;2.65;;;1.45;;
18929;SDS011;43305;52.186;5.598;2022-09-02T10:58:11;2.92;;;1.58;;
18929;SDS011;43305;52.186;5.598;2022-09-02T11:00:46;4.93;;;1.55;;
18929;SDS011;43305;52.186;5.598;2022-09-02T11:03:22;3.92;;;1.63;;
18929;SDS011;43305;52.186;5.598;2022-09-02T11:05:59;4.30;;;1.83;;
18929;SDS011;43305;52.186;5.598;2022-09-02T11:08:32;5.93;;;1.60;;
18929;SDS011;43305;52.186;5.598;2022-09-02T11:11:06;2.25;;;1.70;;
18929;SDS011;43305;52.186;5.598;2022-09-02T11:13:37;4.63;;;1.83;;
18929;SDS011;43305;52.186;5.598;2022-09-02T11:16:21;2.20;;;1.50;;
18929;SDS011;43305;52.186;5.598;2022-09-02T11:18:53;5.57;;;1.70;;
18929;SDS011;43305;52.186;5.598;2022-09-02T11:21:26;2.88;;;1.70;;
18929;SDS011;43305;52.186;5.598;2022-09-02T11:24:03;6.32;;;1.67;;
18929;SDS011;43305;52.186;5.598;2022-09-02T11:26:35;5.03;;;1.58;;
18929;SDS011;43305;52.186;5.598;2022-09-02T11:29:06;4.40;;;1.70;;
18929;SDS011;43305;52.186;5.598;2022-09-02T11:31:37;4.75;;;1.70;;
18929;SDS011;43305;52.186;5.598;2022-09-02T11:34:14;3.53;;;1.75;;
18929;SDS011;43305;52.186;5.598;2022-09-02T11:36:45;7.50;;;1.90;;
18929;SDS011;43305;52.186;5.598;2022-09-02T11:39:15;2.28;;;1.77;;
18929;SDS011;43305;52.186;5.598;2022-09-02T11:41:50;3.47;;;1.50;;
18929;SDS011;43305;52.186;5.598;2022-09-02T11:44:33;5.32;;;1.55;;
18929;SDS011;43305;52.186;5.598;2022-09-02T11:47:29;6.60;;;1.95;;
18929;SDS011;43305;52.186;5.598;2022-09-02T11:50:23;3.95;;;1.58;;
18929;SDS011;43305;52.186;5.598;2022-09-02T11:53:03;2.58;;;1.58;;
18929;SDS011;43305;52.186;5.598;2022-09-02T11:55:41;4.35;;;1.50;;
18929;SDS011;43305;52.186;5.598;2022-09-02T12:00:59;3.00;;;1.50;;
18929;SDS011;43305;52.186;5.598;2022-09-02T12:03:31;6.70;;;1.60;;
18929;SDS011;43305;52.186;5.598;2022-09-02T12:06:10;2.47;;;1.50;;
18929;SDS011;43305;52.186;5.598;2022-09-02T12:11:35;3.15;;;1.60;;
18929;SDS011;43305;52.186;5.598;2022-09-02T12:14:06;3.95;;;1.70;;
18929;SDS011;43305;52.186;5.598;2022-09-02T12:16:41;3.38;;;1.70;;
18929;SDS011;43305;52.186;5.598;2022-09-02T12:19:23;6.05;;;1.77;;
18929;SDS011;43305;52.186;5.598;2022-09-02T12:24:53;4.22;;;1.40;;
18929;SDS011;43305;52.186;5.598;2022-09-02T12:27:22;2.55;;;1.50;;
18929;SDS011;43305;52.186;5.598;2022-09-02T12:29:51;10.68;;;1.90;;
18929;SDS011;43305;52.186;5.598;2022-09-02T12:35:28;4.40;;;1.80;;
18929;SDS011;43305;52.186;5.598;2022-09-02T12:40:52;3.35;;;1.60;;
18929;SDS011;43305;52.186;5.598;2022-09-02T12:43:24;4.65;;;1.90;;
18929;SDS011;43305;52.186;5.598;2022-09-02T12:45:55;4.13;;;1.90;;
18929;SDS011;43305;52.186;5.598;2022-09-02T12:48:33;5.07;;;1.60;;
18929;SDS011;43305;52.186;5.598;2022-09-02T12:51:05;3.05;;;1.60;;
18929;SDS011;43305;52.186;5.598;2022-09-02T12:53:33;4.32;;;1.60;;
18929;SDS011;43305;52.186;5.598;2022-09-02T12:56:05;3.00;;;1.63;;
18929;SDS011;43305;52.186;5.598;2022-09-02T12:58:44;3.70;;;1.70;;
18929;SDS011;43305;52.186;5.598;2022-09-02T13:01:14;3.30;;;1.70;;
18929;SDS011;43305;52.186;5.598;2022-09-02T13:03:47;3.10;;;1.52;;
18929;SDS011;43305;52.186;5.598;2022-09-02T13:06:26;4.30;;;1.73;;
18929;SDS011;43305;52.186;5.598;2022-09-02T13:09:05;4.20;;;1.60;;
18929;SDS011;43305;52.186;5.598;2022-09-02T13:39:26;3.53;;;1.40;;
18929;SDS011;43305;52.186;5.598;2022-09-02T13:41:53;5.60;;;1.40;;
18929;SDS011;43305;52.186;5.598;2022-09-02T13:44:23;3.97;;;1.77;;
18929;SDS011;43305;52.186;5.598;2022-09-02T13:46:51;2.58;;;1.50;;
18929;SDS011;43305;52.186;5.598;2022-09-02T13:49:20;6.15;;;1.50;;
18929;SDS011;43305;52.186;5.598;2022-09-02T13:51:51;3.75;;;1.48;;
18929;SDS011;43305;52.186;5.598;2022-09-02T13:54:22;3.30;;;1.38;;
18929;SDS011;43305;52.186;5.598;2022-09-02T13:56:57;2.92;;;1.60;;
18929;SDS011;43305;52.186;5.598;2022-09-02T13:59:33;2.65;;;1.50;;
18929;SDS011;43305;52.186;5.598;2022-09-02T14:04:46;2.25;;;1.45;;
18929;SDS011;43305;52.186;5.598;2022-09-02T14:07:17;3.03;;;1.75;;
18929;SDS011;43305;52.186;5.598;2022-09-02T14:09:48;5.30;;;1.60;;
18929;SDS011;43305;52.186;5.598;2022-09-02T14:12:19;3.17;;;1.30;;
18929;SDS011;43305;52.186;5.598;2022-09-02T14:14:46;2.97;;;1.35;;
18929;SDS011;43305;52.186;5.598;2022-09-02T14:17:16;6.40;;;1.70;;
18929;SDS011;43305;52.186;5.598;2022-09-02T14:19:45;4.32;;;1.50;;
18929;SDS011;43305;52.186;5.598;2022-09-02T14:24:56;3.85;;;1.25;;
18929;SDS011;43305;52.186;5.598;2022-09-02T14:27:23;3.70;;;1.40;;
18929;SDS011;43305;52.186;5.598;2022-09-02T14:29:52;2.78;;;1.45;;
18929;SDS011;43305;52.186;5.598;2022-09-02T14:32:22;2.22;;;1.23;;
18929;SDS011;43305;52.186;5.598;2022-09-02T14:37:46;6.68;;;1.42;;
18929;SDS011;43305;52.186;5.598;2022-09-02T14:40:16;4.10;;;1.50;;
18929;SDS011;43305;52.186;5.598;2022-09-02T14:42:55;2.97;;;1.63;;
18929;SDS011;43305;52.186;5.598;2022-09-02T14:45:23;5.75;;;1.63;;
18929;SDS011;43305;52.186;5.598;2022-09-02T14:47:52;5.60;;;1.35;;
18929;SDS011;43305;52.186;5.598;2022-09-02T14:50:21;4.15;;;1.60;;
18929;SDS011;43305;52.186;5.598;2022-09-02T14:52:52;4.80;;;1.70;;
18929;SDS011;43305;52.186;5.598;2022-09-02T15:00:46;3.85;;;1.70;;
18929;SDS011;43305;52.186;5.598;2022-09-02T15:03:18;2.72;;;1.50;;
18929;SDS011;43305;52.186;5.598;2022-09-02T15:05:45;3.15;;;1.70;;
18929;SDS011;43305;52.186;5.598;2022-09-02T15:08:13;4.10;;;1.73;;
18929;SDS011;43305;52.186;5.598;2022-09-02T15:10:42;2.85;;;1.88;;
18929;SDS011;43305;52.186;5.598;2022-09-02T15:13:11;6.05;;;2.10;;
18929;SDS011;43305;52.186;5.598;2022-09-02T15:15:39;3.60;;;1.70;;
18929;SDS011;43305;52.186;5.598;2022-09-02T15:18:06;5.13;;;1.80;;
18929;SDS011;43305;52.186;5.598;2022-09-02T15:20:33;2.88;;;1.52;;
18929;SDS011;43305;52.186;5.598;2022-09-02T15:23:00;3.28;;;1.95;;
18929;SDS011;43305;52.186;5.598;2022-09-02T15:25:29;3.13;;;1.85;;
18929;SDS011;43305;52.186;5.598;2022-09-02T15:28:00;4.85;;;2.10;;
18929;SDS011;43305;52.186;5.598;2022-09-02T15:30:27;2.78;;;1.80;;
18929;SDS011;43305;52.186;5.598;2022-09-02T15:32:55;5.18;;;1.88;;
18929;SDS011;43305;52.186;5.598;2022-09-02T15:35:22;2.20;;;1.60;;
18929;SDS011;43305;52.186;5.598;2022-09-02T15:37:48;2.78;;;1.70;;
18929;SDS011;43305;52.186;5.598;2022-09-02T15:40:15;3.70;;;2.13;;
18929;SDS011;43305;52.186;5.598;2022-09-02T15:42:42;3.22;;;2.05;;
18929;SDS011;43305;52.186;5.598;2022-09-02T15:45:13;3.75;;;2.00;;
18929;SDS011;43305;52.186;5.598;2022-09-02T15:47:40;6.38;;;1.92;;
18929;SDS011;43305;52.186;5.598;2022-09-02T15:50:07;3.78;;;1.70;;
18929;SDS011;43305;52.186;5.598;2022-09-02T15:52:34;5.15;;;1.80;;
18929;SDS011;43305;52.186;5.598;2022-09-02T15:55:03;2.92;;;1.70;;
18929;SDS011;43305;52.186;5.598;2022-09-02T15:57:30;6.38;;;2.00;;
18929;SDS011;43305;52.186;5.598;2022-09-02T15:59:57;3.88;;;1.75;;
18929;SDS011;43305;52.186;5.598;2022-09-02T16:02:25;2.50;;;1.60;;
18929;SDS011;43305;52.186;5.598;2022-09-02T16:04:52;3.88;;;1.85;;